B21 EFJY-EFJY

Flight info

Callsign B21
Flight time 0h 30m
Altitude 10000
Route TA TC
Aircraft HAWK/M-SDGIRY/C

Departure

Time 2026-05-04 19:49
Airport Jyväskylä Airport (EFJY)

Arrival

Time 2026-05-04 20:20
Airport Jyväskylä Airport (EFJY)
Time Latitude Longitude Altitude Speed Heading
2026-05-04 19:35 62.40367 25.65580 466 ft 0 kts 86°
2026-05-04 19:42 62.40367 25.65581 466 ft 0 kts 86°
2026-05-04 19:43 62.40368 25.65597 465 ft 4 kts 84°
2026-05-04 19:43 62.40376 25.65613 465 ft 6 kts
2026-05-04 19:43 62.40426 25.65607 466 ft 5 kts 359°
2026-05-04 19:43 62.40451 25.65606 467 ft 2 kts
2026-05-04 19:44 62.40486 25.65626 467 ft 10 kts 33°
2026-05-04 19:44 62.40553 25.65728 469 ft 13 kts 35°
2026-05-04 19:44 62.40634 25.65795 475 ft 13 kts
2026-05-04 19:44 62.40682 25.65834 486 ft 5 kts 36°
2026-05-04 19:45 62.40683 25.65837 486 ft 0 kts 39°
2026-05-04 19:48 62.40684 25.65839 487 ft 3 kts 43°
2026-05-04 19:48 62.40718 25.66011 487 ft 16 kts 91°
2026-05-04 19:49 62.40638 25.66278 482 ft 49 kts 134°
2026-05-04 19:49 62.40113 25.67422 527 ft 160 kts 135°
2026-05-04 19:49 62.39168 25.69576 1367 ft 239 kts 137°
2026-05-04 19:49 62.38173 25.72671 3394 ft 260 kts 108°
2026-05-04 19:50 62.37886 25.76625 5906 ft 270 kts 99°
2026-05-04 19:50 62.37605 25.80719 8072 ft 288 kts 99°
2026-05-04 19:50 62.37303 25.85185 9818 ft 313 kts 99°
2026-05-04 19:50 62.36970 25.90151 10621 ft 362 kts 101°
2026-05-04 19:51 62.36587 25.95657 10668 ft 373 kts 101°
2026-05-04 19:51 62.36268 26.01166 10714 ft 370 kts 86°
2026-05-04 19:51 62.37110 26.06300 10860 ft 373 kts 66°
2026-05-04 19:51 62.38129 26.11464 11032 ft 378 kts 66°
2026-05-04 19:52 62.39129 26.16620 10845 ft 363 kts 66°
2026-05-04 19:52 62.40087 26.21527 10860 ft 350 kts 66°
2026-05-04 19:52 62.41437 26.25505 10678 ft 320 kts 13°
2026-05-04 19:52 62.43479 26.25281 10638 ft 293 kts 344°
2026-05-04 19:53 62.45510 26.24530 10707 ft 293 kts 343°
2026-05-04 19:53 62.47538 26.23725 10941 ft 295 kts 339°
2026-05-04 19:53 62.49675 26.22618 10210 ft 326 kts 339°
2026-05-04 19:53 62.51777 26.20963 10481 ft 310 kts 333°
2026-05-04 19:54 62.53732 26.19394 10346 ft 288 kts 333°
2026-05-04 19:54 62.55567 26.17902 9976 ft 275 kts 333°
2026-05-04 19:54 62.56842 26.15553 9623 ft 238 kts 272°
2026-05-04 19:54 62.56011 26.12543 9550 ft 254 kts 227°
2026-05-04 19:55 62.54696 26.09800 9602 ft 269 kts 226°
2026-05-04 19:55 62.52820 26.09072 9616 ft 315 kts 162°
2026-05-04 19:55 62.51753 26.13135 9624 ft 346 kts 77°
2026-05-04 19:55 62.53360 26.15883 9773 ft 301 kts 347°
2026-05-04 19:56 62.54782 26.13251 9903 ft 286 kts 298°
2026-05-04 19:56 62.55954 26.09128 9866 ft 360 kts 297°
2026-05-04 19:56 62.57358 26.03891 9707 ft 442 kts 297°
2026-05-04 19:56 62.58879 25.97847 9985 ft 455 kts 295°
2026-05-04 19:57 62.60266 25.92040 10126 ft 409 kts 295°
2026-05-04 19:57 62.61481 25.86812 10395 ft 366 kts 282°
2026-05-04 19:57 62.60849 25.81994 10479 ft 345 kts 222°
2026-05-04 19:57 62.58606 25.82282 10297 ft 358 kts 143°
2026-05-04 19:58 62.57035 25.85888 10339 ft 283 kts 137°
2026-05-04 19:58 62.55846 25.88874 10305 ft 246 kts 136°
2026-05-04 19:58 62.54831 25.91581 10334 ft 215 kts 136°
2026-05-04 19:58 62.53982 25.93975 10353 ft 185 kts 135°
2026-05-04 19:59 62.53292 25.96053 10256 ft 155 kts 135°
2026-05-04 19:59 62.52455 25.98555 9697 ft 232 kts 131°
2026-05-04 19:59 62.51639 26.01123 9883 ft 184 kts 131°
2026-05-04 19:59 62.51026 26.03206 9807 ft 151 kts 131°
2026-05-04 20:00 62.50420 26.05261 9248 ft 198 kts 131°
2026-05-04 20:00 62.49433 26.08220 9226 ft 290 kts 131°
2026-05-04 20:00 62.48036 26.12181 9643 ft 366 kts 131°
2026-05-04 20:00 62.46361 26.16960 10182 ft 433 kts 130°
2026-05-04 20:01 62.44819 26.21619 10654 ft 334 kts 118°
2026-05-04 20:01 62.45270 26.26182 10786 ft 340 kts 32°
2026-05-04 20:01 62.47248 26.25544 11041 ft 313 kts 313°
2026-05-04 20:01 62.48917 26.22197 11020 ft 332 kts 311°
2026-05-04 20:02 62.50551 26.18811 11103 ft 319 kts 310°
2026-05-04 20:02 62.52149 26.15495 10748 ft 320 kts 312°
2026-05-04 20:02 62.53831 26.12242 10441 ft 322 kts 314°
2026-05-04 20:02 62.55555 26.09127 10457 ft 326 kts 315°
2026-05-04 20:03 62.57348 26.06052 10494 ft 330 kts 317°
2026-05-04 20:03 62.59177 26.03067 10728 ft 327 kts 318°
2026-05-04 20:03 62.61013 26.00201 10991 ft 324 kts 319°
2026-05-04 20:03 62.62866 25.97382 11084 ft 327 kts 319°
2026-05-04 20:04 62.64743 25.94543 11139 ft 330 kts 319°
2026-05-04 20:04 62.65543 25.90460 10775 ft 314 kts 256°
2026-05-04 20:04 62.63744 25.87806 9361 ft 364 kts 189°
2026-05-04 20:04 62.61223 25.88791 8397 ft 373 kts 167°
2026-05-04 20:05 62.58891 25.90715 7646 ft 346 kts 162°
2026-05-04 20:05 62.56753 25.92646 7053 ft 322 kts 161°
2026-05-04 20:05 62.54728 25.94542 6143 ft 313 kts 165°
2026-05-04 20:05 62.52685 25.95328 5681 ft 289 kts 177°
2026-05-04 20:06 62.50721 25.95921 5171 ft 277 kts 177°
2026-05-04 20:06 62.48884 25.96497 4929 ft 262 kts 176°
2026-05-04 20:06 62.47120 25.97579 4358 ft 265 kts 162°
2026-05-04 20:06 62.45435 25.99088 4015 ft 256 kts 162°
2026-05-04 20:07 62.43804 26.00424 3705 ft 247 kts 165°
2026-05-04 20:07 62.42231 26.01683 3648 ft 237 kts 165°
2026-05-04 20:07 62.40633 26.02919 3662 ft 255 kts 166°
2026-05-04 20:07 62.38890 26.04197 3771 ft 274 kts 167°
2026-05-04 20:08 62.37037 26.05436 3767 ft 292 kts 168°
2026-05-04 20:08 62.35039 26.06549 3688 ft 298 kts 177°
2026-05-04 20:08 62.33020 26.05884 3491 ft 293 kts 210°
2026-05-04 20:08 62.31440 26.03316 3848 ft 277 kts 220°
2026-05-04 20:09 62.29901 26.00722 3875 ft 282 kts 223°
2026-05-04 20:09 62.28959 25.97232 3910 ft 275 kts 264°
2026-05-04 20:09 62.29381 25.93233 3867 ft 278 kts 292°
2026-05-04 20:09 62.30155 25.89714 3514 ft 243 kts 297°
2026-05-04 20:10 62.31251 25.87312 3335 ft 215 kts 313°
2026-05-04 20:10 62.32309 25.85236 2990 ft 197 kts 311°
2026-05-04 20:10 62.33257 25.83302 2622 ft 183 kts 309°
2026-05-04 20:10 62.34142 25.81419 2239 ft 174 kts 309°
2026-05-04 20:11 62.34930 25.79608 2011 ft 157 kts 306°
2026-05-04 20:11 62.35625 25.77909 1717 ft 145 kts 302°
2026-05-04 20:11 62.36208 25.76286 1459 ft 131 kts 303°
2026-05-04 20:11 62.36805 25.74803 1166 ft 129 kts 310°
2026-05-04 20:12 62.37450 25.73473 971 ft 128 kts 313°
2026-05-04 20:12 62.38077 25.72056 823 ft 133 kts 309°
2026-05-04 20:12 62.38722 25.70585 629 ft 134 kts 312°
2026-05-04 20:12 62.39323 25.69219 462 ft 116 kts 316°
2026-05-04 20:13 62.39950 25.67859 616 ft 160 kts 313°
2026-05-04 20:13 62.40893 25.65782 1765 ft 229 kts 309°
2026-05-04 20:13 62.41973 25.62606 2039 ft 274 kts 279°
2026-05-04 20:13 62.41110 25.59341 1990 ft 264 kts 218°
2026-05-04 20:14 62.39462 25.58447 1865 ft 258 kts 159°
2026-05-04 20:14 62.38302 25.61299 1925 ft 253 kts 129°
2026-05-04 20:14 62.37287 25.64406 1857 ft 257 kts 129°
2026-05-04 20:14 62.36249 25.67537 1932 ft 252 kts 130°
2026-05-04 20:15 62.35710 25.70720 1875 ft 222 kts 80°
2026-05-04 20:15 62.36506 25.73139 1604 ft 187 kts 37°
2026-05-04 20:15 62.37555 25.73813 1237 ft 142 kts 326°
2026-05-04 20:15 62.37996 25.72193 849 ft 121 kts 297°
2026-05-04 20:16 62.38583 25.70871 661 ft 124 kts 313°
2026-05-04 20:16 62.39182 25.69546 487 ft 122 kts 311°
2026-05-04 20:16 62.39806 25.68146 599 ft 153 kts 315°
2026-05-04 20:16 62.40732 25.66091 1570 ft 230 kts 310°
2026-05-04 20:17 62.41644 25.62810 2186 ft 277 kts 266°
2026-05-04 20:17 62.40518 25.59740 2257 ft 275 kts 219°
2026-05-04 20:17 62.38784 25.59566 2208 ft 269 kts 142°
2026-05-04 20:17 62.37628 25.62453 2071 ft 248 kts 133°
2026-05-04 20:18 62.36575 25.65292 1970 ft 240 kts 132°
2026-05-04 20:18 62.35565 25.68135 1946 ft 237 kts 130°
2026-05-04 20:18 62.35051 25.71233 2001 ft 212 kts 83°
2026-05-04 20:18 62.35766 25.73638 1738 ft 180 kts 40°
2026-05-04 20:19 62.36747 25.74450 1510 ft 143 kts 331°
2026-05-04 20:19 62.37533 25.73215 1068 ft 134 kts 311°
2026-05-04 20:19 62.38157 25.71843 811 ft 127 kts 311°
2026-05-04 20:19 62.38760 25.70492 613 ft 121 kts 311°
2026-05-04 20:20 62.39328 25.69214 462 ft 113 kts 313°
2026-05-04 20:20 62.39566 25.68710 461 ft 0 kts 316°
2026-05-04 20:20 62.39566 25.68711 464 ft 0 kts 316°
2026-05-04 20:21 62.39677 25.68431 464 ft 59 kts 313°
2026-05-04 20:21 62.40070 25.67556 471 ft 83 kts 311°
2026-05-04 20:21 62.40508 25.66572 477 ft 19 kts 308°
2026-05-04 20:22 62.40525 25.66437 481 ft 3 kts 228°
2026-05-04 20:22 62.40512 25.66408 481 ft 11 kts 226°
2026-05-04 20:22 62.40427 25.66228 478 ft 19 kts 224°
2026-05-04 20:22 62.40328 25.66020 466 ft 16 kts 224°
2026-05-04 20:23 62.40282 25.65913 462 ft 4 kts 231°
2026-05-04 20:23 62.40261 25.65871 461 ft 4 kts 221°
2026-05-04 20:23 62.40241 25.65835 461 ft 3 kts 221°
2026-05-04 20:23 62.40228 25.65811 461 ft 1 kts 220°
2026-05-04 20:24 62.40196 25.65716 462 ft 10 kts 277°
2026-05-04 20:24 62.40200 25.65660 463 ft 9 kts 229°
2026-05-04 20:24 62.40195 25.65647 463 ft 0 kts 233°